createdAt,value
2022-10-31T00:00:13.801Z,7.88
2022-10-31T00:01:36.827Z,8.16
2022-10-31T00:04:19.553Z,7.57
2022-10-31T00:05:44.513Z,8.79
2022-10-31T00:07:05.560Z,8.40
2022-10-31T00:08:27.077Z,8.06
2022-10-31T00:09:48.106Z,7.96
2022-10-31T00:11:10.129Z,8.22
2022-10-31T00:12:31.683Z,8.22
2022-10-31T00:13:53.484Z,8.46
2022-10-31T00:15:15.078Z,8.32
2022-10-31T00:16:36.641Z,8.51
2022-10-31T00:17:59.292Z,8.36
2022-10-31T00:20:41.706Z,8.58
2022-10-31T00:22:02.836Z,8.80
2022-10-31T00:23:23.935Z,8.51
2022-10-31T00:24:45.352Z,8.75
2022-10-31T00:26:06.617Z,9.02
2022-10-31T00:27:27.653Z,9.17
2022-10-31T00:28:48.786Z,9.16
2022-10-31T00:30:10.606Z,8.97
2022-10-31T00:31:34.050Z,8.91
2022-10-31T00:34:15.941Z,8.53
2022-10-31T00:35:37.016Z,8.94
2022-10-31T00:38:12.876Z,9.42
2022-10-31T00:39:34.014Z,9.09
2022-10-31T00:40:55.759Z,8.88
2022-10-31T00:42:17.457Z,8.98
2022-10-31T00:43:38.762Z,9.11
2022-10-31T00:45:00.360Z,8.93
2022-10-31T00:46:21.931Z,9.36
2022-10-31T00:47:43.082Z,8.79
2022-10-31T00:49:04.580Z,8.78
2022-10-31T00:50:25.983Z,9.89
2022-10-31T00:51:48.898Z,9.79
2022-10-31T00:53:10.907Z,9.58
2022-10-31T00:54:32.356Z,9.24
2022-10-31T00:55:56.521Z,9.37
2022-10-31T00:57:17.632Z,8.56
2022-10-31T00:58:39.083Z,9.12
2022-10-31T01:00:00.654Z,9.16
2022-10-31T01:01:22.155Z,9.29
2022-10-31T01:02:43.724Z,9.00
2022-10-31T01:04:05.064Z,8.92
2022-10-31T01:05:27.607Z,8.82
2022-10-31T01:06:48.807Z,9.59
2022-10-31T01:08:10.006Z,9.12
2022-10-31T01:09:31.389Z,9.16
2022-10-31T01:11:19.854Z,9.04
2022-10-31T01:12:42.825Z,8.59
2022-10-31T01:14:03.830Z,8.63
2022-10-31T01:15:25.672Z,9.42
2022-10-31T01:16:46.920Z,9.38
2022-10-31T01:18:08.300Z,8.65
2022-10-31T01:19:29.647Z,9.49
2022-10-31T01:21:01.285Z,8.91
2022-10-31T01:22:22.658Z,8.46
2022-10-31T01:23:43.910Z,8.79
2022-10-31T01:25:06.478Z,8.91
2022-10-31T01:27:42.501Z,9.04
2022-10-31T01:29:05.821Z,8.76
2022-10-31T01:31:48.200Z,8.51
2022-10-31T01:33:11.780Z,8.59
2022-10-31T01:34:33.031Z,8.81
2022-10-31T01:35:54.077Z,9.29
2022-10-31T01:37:15.709Z,9.29
2022-10-31T01:38:37.128Z,9.28
2022-10-31T01:40:00.151Z,9.02
2022-10-31T01:42:43.596Z,8.75
2022-10-31T01:44:18.312Z,8.81
2022-10-31T01:45:43.044Z,9.28
2022-10-31T01:48:22.147Z,7.02
2022-10-31T01:49:51.624Z,8.74
2022-10-31T01:51:13.058Z,9.16
2022-10-31T01:52:42.408Z,9.46
2022-10-31T01:54:08.891Z,8.72
2022-10-31T01:55:38.629Z,8.79
2022-10-31T01:56:59.710Z,8.43
2022-10-31T01:58:23.851Z,8.46
2022-10-31T01:59:48.258Z,8.69
2022-10-31T02:01:09.506Z,8.28
2022-10-31T02:02:31.616Z,8.04
2022-10-31T02:03:53.160Z,8.92
2022-10-31T02:06:47.168Z,7.21
2022-10-31T02:08:19.709Z,8.77
2022-10-31T02:09:41.335Z,8.21
2022-10-31T02:11:02.721Z,8.64
2022-10-31T02:12:24.331Z,8.67
2022-10-31T02:13:45.681Z,8.52
2022-10-31T02:15:08.842Z,8.52
2022-10-31T02:17:51.896Z,8.44
2022-10-31T02:19:14.936Z,8.59
2022-10-31T02:21:55.921Z,8.93
2022-10-31T02:23:32.722Z,8.47
2022-10-31T02:25:00.379Z,8.94
2022-10-31T02:28:22.738Z,9.32
2022-10-31T02:30:10.550Z,9.05
2022-10-31T02:32:05.252Z,8.87
2022-10-31T02:33:33.308Z,8.41
2022-10-31T02:35:01.414Z,8.58
2022-10-31T02:36:38.627Z,9.09
2022-10-31T02:38:22.820Z,8.68
2022-10-31T02:41:33.367Z,8.52
2022-10-31T02:43:07.191Z,8.71
2022-10-31T02:44:32.331Z,8.29
2022-10-31T02:47:30.101Z,8.78
2022-10-31T02:48:53.082Z,8.59
2022-10-31T02:50:26.513Z,9.16
2022-10-31T02:51:48.065Z,8.28
2022-10-31T02:53:09.442Z,8.62
2022-10-31T02:54:31.481Z,8.39
2022-10-31T02:55:58.600Z,9.10
2022-10-31T02:59:15.288Z,9.19
2022-10-31T03:00:48.416Z,9.27
2022-10-31T03:03:32.041Z,8.89
2022-10-31T03:05:14.934Z,9.08
2022-10-31T03:08:26.667Z,9.36
2022-10-31T03:10:12.665Z,8.61
2022-10-31T03:11:37.930Z,9.14
2022-10-31T03:13:03.340Z,9.23
2022-10-31T03:14:37.649Z,9.55
2022-10-31T03:17:36.489Z,9.43
2022-10-31T03:19:00.622Z,9.12
2022-10-31T03:20:24.729Z,9.37
2022-10-31T03:21:55.097Z,9.65
2022-10-31T03:23:16.567Z,9.35
2022-10-31T03:24:38.835Z,9.38
2022-10-31T03:26:01.119Z,9.60
2022-10-31T03:27:26.626Z,6.97
2022-10-31T03:28:57.145Z,9.43
2022-10-31T03:30:18.684Z,8.35
2022-10-31T03:32:52.982Z,8.78
2022-10-31T03:34:14.513Z,8.47
2022-10-31T03:35:36.151Z,9.08
2022-10-31T03:36:59.617Z,8.89
2022-10-31T03:38:20.938Z,9.00
2022-10-31T03:39:42.847Z,9.87
2022-10-31T03:41:04.516Z,9.21
2022-10-31T03:42:26.258Z,9.00
2022-10-31T03:45:09.580Z,9.59
2022-10-31T03:46:31.095Z,8.83
2022-10-31T03:47:53.314Z,9.27
2022-10-31T03:49:14.585Z,9.35
2022-10-31T03:50:49.573Z,9.09
2022-10-31T03:52:49.060Z,10.39
2022-10-31T03:54:27.723Z,10.17
2022-10-31T03:57:27.088Z,9.62
2022-10-31T03:58:57.877Z,9.27
2022-10-31T04:00:19.595Z,9.19
2022-10-31T04:01:43.932Z,9.23
2022-10-31T04:03:10.695Z,9.73
2022-10-31T04:04:31.828Z,9.69
2022-10-31T04:05:54.472Z,9.49
2022-10-31T04:07:15.864Z,10.12
2022-10-31T04:09:55.244Z,7.68
2022-10-31T04:11:16.962Z,9.78
2022-10-31T04:12:38.344Z,9.52
2022-10-31T04:14:00.462Z,10.08
2022-10-31T04:15:21.530Z,10.04
2022-10-31T04:16:43.543Z,9.71
2022-10-31T04:18:04.884Z,7.38
2022-10-31T04:19:26.396Z,10.08
2022-10-31T04:20:49.617Z,9.84
2022-10-31T04:22:11.211Z,9.39
2022-10-31T04:23:33.087Z,9.99
2022-10-31T04:24:54.047Z,10.35
2022-10-31T04:26:15.682Z,9.81
2022-10-31T04:27:37.114Z,9.95
2022-10-31T04:28:58.035Z,9.84
2022-10-31T04:30:18.996Z,10.54
2022-10-31T04:31:39.927Z,10.12
2022-10-31T04:33:01.335Z,9.71
2022-10-31T04:34:22.916Z,7.27
2022-10-31T04:35:44.397Z,9.71
2022-10-31T04:37:05.816Z,9.82
2022-10-31T04:38:27.335Z,10.24
2022-10-31T04:39:48.873Z,10.38
2022-10-31T04:41:10.019Z,10.26
2022-10-31T04:42:31.088Z,10.33
2022-10-31T04:43:52.501Z,9.52
2022-10-31T04:45:16.855Z,9.42
2022-10-31T04:46:37.207Z,9.99
2022-10-31T04:47:58.832Z,9.75
2022-10-31T04:49:20.488Z,7.29
2022-10-31T04:50:41.764Z,9.56
2022-10-31T04:52:03.429Z,10.59
2022-10-31T04:53:24.893Z,9.44
2022-10-31T04:54:46.312Z,9.99
2022-10-31T04:56:07.591Z,9.92
2022-10-31T04:57:28.827Z,9.67
2022-10-31T04:58:50.560Z,9.60
2022-10-31T05:00:16.196Z,10.31
2022-10-31T05:01:37.744Z,9.78
2022-10-31T05:02:59.930Z,9.10
2022-10-31T05:04:21.546Z,9.37
2022-10-31T05:05:42.994Z,9.89
2022-10-31T05:07:04.379Z,9.89
2022-10-31T05:08:26.156Z,9.61
2022-10-31T05:09:48.245Z,9.23
2022-10-31T05:11:10.055Z,9.37
2022-10-31T05:12:31.427Z,9.49
2022-10-31T05:13:52.586Z,9.72
2022-10-31T05:15:14.408Z,10.79
2022-10-31T05:16:35.831Z,10.13
2022-10-31T05:17:58.996Z,11.72
2022-10-31T05:19:20.556Z,10.43
2022-10-31T05:20:41.629Z,10.91
2022-10-31T05:22:02.809Z,10.96
2022-10-31T05:23:24.319Z,10.72
2022-10-31T05:24:45.782Z,10.79
2022-10-31T05:26:07.436Z,12.47
2022-10-31T05:27:28.646Z,10.16
2022-10-31T05:28:50.977Z,10.56
2022-10-31T05:31:34.885Z,10.01
2022-10-31T05:32:56.431Z,12.66
2022-10-31T05:34:17.507Z,10.45
2022-10-31T05:35:38.961Z,11.42
2022-10-31T05:37:00.318Z,10.77
2022-10-31T05:38:21.572Z,10.79
2022-10-31T05:39:42.555Z,10.37
2022-10-31T05:41:04.071Z,10.55
2022-10-31T05:42:25.360Z,12.76
2022-10-31T05:43:46.636Z,12.26
2022-10-31T05:45:09.006Z,10.66
2022-10-31T05:46:30.067Z,11.61
2022-10-31T05:47:58.294Z,10.32
2022-10-31T05:49:20.201Z,11.04
2022-10-31T05:50:41.465Z,11.35
2022-10-31T05:52:03.123Z,12.09
2022-10-31T05:53:24.461Z,13.84
2022-10-31T05:54:45.742Z,12.63
2022-10-31T05:56:07.304Z,11.92
2022-10-31T05:57:29.293Z,11.85
2022-10-31T05:58:50.552Z,12.32
2022-10-31T06:00:12.915Z,10.83
2022-10-31T06:01:34.026Z,10.50
2022-10-31T06:03:01.952Z,11.42
2022-10-31T06:04:23.416Z,11.35
2022-10-31T06:05:50.649Z,11.27
2022-10-31T06:07:09.594Z,10.99
2022-10-31T06:08:31.199Z,11.30
2022-10-31T06:09:52.623Z,11.12
2022-10-31T06:11:15.138Z,10.81
2022-10-31T06:12:38.787Z,14.84
2022-10-31T06:14:00.039Z,12.39
2022-10-31T06:15:24.501Z,12.36
2022-10-31T06:16:45.882Z,12.14
2022-10-31T06:18:07.401Z,11.50
2022-10-31T06:19:29.083Z,11.46
2022-10-31T06:20:55.167Z,11.60
2022-10-31T06:22:16.454Z,10.82
2022-10-31T06:23:37.779Z,12.39
2022-10-31T06:24:59.683Z,11.71
2022-10-31T06:26:21.627Z,11.17
2022-10-31T06:27:44.144Z,12.76
2022-10-31T06:29:05.888Z,10.64
2022-10-31T06:30:29.064Z,11.64
2022-10-31T06:31:54.390Z,10.61
2022-10-31T06:33:16.570Z,10.13
2022-10-31T06:34:40.253Z,11.79
2022-10-31T06:36:01.642Z,12.02
2022-10-31T06:37:22.745Z,10.38
2022-10-31T06:38:45.778Z,11.01
2022-10-31T06:40:08.256Z,10.55
2022-10-31T06:41:29.541Z,10.15
2022-10-31T06:42:57.972Z,11.19
2022-10-31T06:44:21.217Z,11.04
2022-10-31T06:45:42.485Z,11.01
2022-10-31T06:47:03.886Z,10.62
2022-10-31T06:48:25.483Z,10.31
2022-10-31T06:49:46.706Z,10.62
2022-10-31T06:51:08.476Z,11.40
2022-10-31T06:52:29.568Z,10.55
2022-10-31T06:53:50.829Z,10.78
2022-10-31T06:55:12.402Z,10.81
2022-10-31T06:56:33.962Z,10.54
2022-10-31T06:58:02.883Z,9.97
2022-10-31T06:59:23.299Z,11.08
2022-10-31T07:00:44.599Z,10.77
2022-10-31T07:02:05.690Z,10.91
2022-10-31T07:03:26.801Z,11.69
2022-10-31T07:04:48.108Z,10.97
2022-10-31T07:06:10.672Z,12.30
2022-10-31T07:07:31.943Z,11.32
2022-10-31T07:08:53.353Z,10.59
2022-10-31T07:10:15.627Z,10.32
2022-10-31T07:11:37.436Z,10.80
2022-10-31T07:13:00.197Z,10.99
2022-10-31T07:14:21.575Z,11.00
2022-10-31T07:15:43.042Z,11.97
2022-10-31T07:17:04.064Z,11.61
2022-10-31T07:18:25.637Z,11.15
2022-10-31T07:19:47.182Z,11.76
2022-10-31T07:21:08.207Z,12.44
2022-10-31T07:22:35.912Z,12.73
2022-10-31T07:23:57.472Z,10.87
2022-10-31T07:25:18.867Z,11.19
2022-10-31T07:26:40.102Z,11.44
2022-10-31T07:28:04.170Z,10.84
2022-10-31T07:29:25.497Z,11.35
2022-10-31T07:32:07.750Z,13.62
2022-10-31T07:33:30.270Z,10.13
2022-10-31T07:34:53.634Z,12.22
2022-10-31T07:36:15.422Z,12.14
2022-10-31T07:37:37.303Z,8.94
2022-10-31T07:38:58.778Z,10.37
2022-10-31T07:40:19.973Z,11.61
2022-10-31T07:41:41.054Z,12.36
2022-10-31T07:43:03.636Z,12.30
2022-10-31T07:44:25.855Z,13.73
2022-10-31T07:45:54.918Z,12.68
2022-10-31T07:47:16.270Z,11.33
2022-10-31T07:48:39.496Z,11.08
2022-10-31T07:51:22.245Z,13.25
2022-10-31T07:52:43.597Z,11.72
2022-10-31T07:54:08.763Z,13.01
2022-10-31T07:55:31.911Z,12.73
2022-10-31T07:56:53.121Z,10.96
2022-10-31T07:58:15.503Z,13.77
2022-10-31T07:59:36.744Z,12.25
2022-10-31T08:00:59.502Z,10.48
2022-10-31T08:02:21.742Z,11.91
2022-10-31T08:03:42.993Z,12.16
2022-10-31T08:05:05.067Z,11.14
2022-10-31T08:06:27.771Z,10.59
2022-10-31T08:07:49.270Z,11.48
2022-10-31T08:09:11.068Z,9.40
2022-10-31T08:10:32.552Z,9.47
2022-10-31T08:11:53.951Z,9.13
2022-10-31T08:13:15.432Z,9.31
2022-10-31T08:14:38.674Z,9.25
2022-10-31T08:16:00.162Z,7.78
2022-10-31T08:17:21.532Z,8.40
2022-10-31T08:18:42.786Z,7.87
2022-10-31T08:20:05.023Z,7.72
2022-10-31T08:21:26.232Z,8.24
2022-10-31T08:24:09.190Z,6.82
2022-10-31T08:25:35.449Z,8.09
2022-10-31T08:26:55.420Z,8.01
2022-10-31T08:28:16.611Z,8.11
2022-10-31T08:29:37.740Z,7.57
2022-10-31T08:31:00.339Z,7.41
2022-10-31T08:32:21.765Z,5.32
2022-10-31T08:33:43.252Z,6.49
2022-10-31T08:35:05.346Z,6.72
2022-10-31T08:36:28.519Z,7.04
2022-10-31T08:37:54.018Z,6.57
2022-10-31T08:39:15.712Z,6.91
2022-10-31T08:40:36.701Z,7.03
2022-10-31T08:41:57.759Z,6.42
2022-10-31T08:43:19.875Z,6.33
2022-10-31T08:44:43.402Z,6.37
2022-10-31T08:46:04.833Z,6.64
2022-10-31T08:47:26.348Z,6.26
2022-10-31T08:48:48.420Z,6.32
2022-10-31T08:50:10.514Z,6.19
2022-10-31T08:51:31.559Z,9.02
2022-10-31T08:53:04.898Z,7.54
2022-10-31T08:54:16.464Z,6.30
2022-10-31T08:55:38.439Z,5.97
2022-10-31T08:57:00.320Z,5.72
2022-10-31T08:58:21.998Z,6.31
2022-10-31T08:59:43.774Z,5.03
2022-10-31T09:01:05.682Z,6.42
2022-10-31T09:02:27.313Z,6.06
2022-10-31T09:03:48.422Z,6.04
2022-10-31T09:05:10.013Z,5.72
2022-10-31T09:06:31.819Z,6.09
2022-10-31T09:07:57.802Z,6.38
2022-10-31T09:09:19.208Z,6.17
2022-10-31T09:10:40.745Z,6.36
2022-10-31T09:13:18.817Z,5.64
2022-10-31T09:14:44.755Z,6.09
2022-10-31T09:16:09.711Z,6.05
2022-10-31T09:17:30.909Z,5.67
2022-10-31T09:19:01.210Z,5.88
2022-10-31T09:20:23.650Z,6.09
2022-10-31T09:21:45.101Z,5.28
2022-10-31T09:23:13.869Z,5.77
2022-10-31T09:24:35.061Z,5.13
2022-10-31T09:25:56.390Z,5.33
2022-10-31T09:27:17.844Z,5.18
2022-10-31T09:28:40.407Z,5.83
2022-10-31T09:30:03.783Z,6.33
2022-10-31T09:31:28.713Z,5.67
2022-10-31T09:33:02.009Z,5.18
2022-10-31T09:34:23.658Z,6.13
2022-10-31T09:35:45.528Z,6.31
2022-10-31T09:37:06.568Z,4.72
2022-10-31T09:38:28.551Z,5.02
2022-10-31T09:39:50.187Z,4.72
2022-10-31T09:45:27.267Z,5.02
2022-10-31T09:48:44.722Z,4.72
2022-10-31T09:51:39.089Z,4.60
2022-10-31T09:53:06.546Z,4.95
2022-10-31T09:54:34.564Z,4.72
2022-10-31T09:55:56.087Z,4.30
2022-10-31T09:57:22.147Z,5.36
2022-10-31T09:58:45.360Z,4.71
2022-10-31T10:00:07.825Z,4.52
2022-10-31T10:01:47.731Z,3.94
2022-10-31T10:06:42.645Z,3.88
2022-10-31T10:08:09.553Z,3.57
2022-10-31T10:09:30.710Z,3.52
2022-10-31T10:11:08.076Z,3.59
2022-10-31T10:12:49.598Z,4.14
2022-10-31T10:14:38.365Z,4.22
2022-10-31T10:16:12.774Z,5.21
2022-10-31T10:19:14.625Z,4.78
2022-10-31T10:22:25.912Z,4.28
2022-10-31T10:24:13.654Z,4.18
2022-10-31T10:25:41.481Z,4.07
2022-10-31T10:28:38.817Z,4.04
2022-10-31T10:30:13.378Z,4.12
2022-10-31T10:31:39.606Z,4.29
2022-10-31T10:33:03.536Z,4.93
2022-10-31T10:34:34.497Z,4.11
2022-10-31T10:35:58.416Z,4.51
2022-10-31T10:37:23.414Z,4.52
2022-10-31T10:38:48.979Z,4.29
2022-10-31T10:40:17.788Z,4.48
2022-10-31T10:41:39.414Z,4.18
2022-10-31T10:43:25.305Z,4.66
2022-10-31T10:44:47.883Z,4.74
2022-10-31T10:46:35.156Z,3.82
2022-10-31T10:52:50.592Z,4.14
2022-10-31T10:54:44.076Z,4.09
2022-10-31T10:57:51.748Z,4.24
2022-10-31T10:59:15.950Z,4.03
2022-10-31T11:02:03.472Z,4.74
2022-10-31T11:03:24.757Z,4.24
2022-10-31T11:04:49.902Z,4.18
2022-10-31T11:06:35.319Z,4.08
2022-10-31T11:07:57.286Z,3.70
2022-10-31T11:09:18.453Z,4.44
2022-10-31T11:10:39.988Z,3.93
2022-10-31T11:12:14.727Z,4.03
2022-10-31T11:13:36.210Z,4.05
2022-10-31T11:14:59.438Z,4.91
2022-10-31T11:17:55.710Z,4.29
2022-10-31T11:19:25.872Z,4.16
2022-10-31T11:20:54.856Z,3.98
2022-10-31T11:22:17.109Z,4.14
2022-10-31T11:23:40.344Z,4.36
2022-10-31T11:25:21.846Z,4.35
2022-10-31T11:26:44.321Z,4.31
2022-10-31T11:28:08.186Z,4.00
2022-10-31T11:30:57.342Z,3.82
2022-10-31T11:34:00.636Z,3.88
2022-10-31T11:35:29.155Z,3.66
2022-10-31T11:48:30.762Z,3.99
2022-10-31T11:49:53.171Z,5.77
2022-10-31T11:52:38.348Z,5.02
2022-10-31T11:54:02.880Z,5.07
2022-10-31T11:55:35.047Z,4.56
2022-10-31T11:56:56.476Z,4.35
2022-10-31T11:58:23.460Z,3.75
2022-10-31T12:01:10.703Z,3.43
2022-10-31T12:02:32.209Z,3.55
2022-10-31T12:05:29.040Z,3.35
2022-10-31T12:06:50.556Z,3.27
2022-10-31T12:08:12.984Z,3.26
2022-10-31T12:25:34.599Z,3.19
2022-10-31T12:28:46.201Z,2.94
2022-10-31T12:30:13.730Z,2.69
2022-10-31T12:32:03.490Z,4.02
2022-10-31T12:33:42.564Z,3.35
2022-10-31T12:35:17.007Z,3.96
2022-10-31T12:38:24.153Z,5.12
2022-10-31T12:39:50.116Z,4.58
2022-10-31T12:41:34.641Z,4.37
2022-10-31T12:43:11.921Z,3.16
2022-10-31T12:45:01.234Z,3.48
2022-10-31T12:46:35.216Z,3.96
2022-10-31T12:48:07.441Z,3.84
2022-10-31T12:49:41.576Z,2.66
2022-10-31T12:51:24.370Z,2.85
2022-10-31T12:54:36.530Z,3.29
2022-10-31T12:56:06.798Z,6.19
2022-10-31T12:59:08.273Z,3.99
2022-10-31T13:00:30.620Z,3.76
2022-10-31T13:02:12.553Z,3.67
2022-10-31T13:05:13.426Z,5.04
2022-10-31T13:18:33.943Z,4.51
2022-10-31T13:31:51.611Z,3.76
2022-10-31T13:34:48.136Z,5.03
2022-10-31T13:36:43.854Z,6.48
2022-10-31T13:38:32.988Z,6.30
2022-10-31T13:40:19.284Z,5.62
2022-10-31T13:41:48.051Z,6.32
2022-10-31T13:43:17.592Z,5.87
2022-10-31T13:44:38.961Z,5.71
2022-10-31T13:46:02.141Z,8.95
2022-10-31T13:47:29.024Z,8.68
2022-10-31T13:48:53.433Z,7.48
2022-10-31T13:50:30.822Z,6.56
2022-10-31T13:51:52.294Z,6.02
2022-10-31T13:53:26.460Z,5.72
2022-10-31T13:54:48.582Z,5.74
2022-10-31T13:57:43.039Z,6.32
2022-10-31T14:00:33.960Z,12.89
2022-10-31T14:01:59.801Z,7.35
2022-10-31T14:04:07.656Z,6.22
2022-10-31T14:05:37.381Z,5.93
2022-10-31T14:07:14.891Z,6.25
2022-10-31T14:08:38.101Z,6.24
2022-10-31T14:10:07.672Z,7.37
2022-10-31T14:11:37.200Z,7.03
2022-10-31T14:25:53.124Z,9.09
2022-10-31T14:29:50.763Z,7.93
2022-10-31T14:33:01.665Z,7.85
2022-10-31T14:34:35.796Z,7.96
2022-10-31T14:36:05.089Z,8.23
2022-10-31T14:37:57.629Z,7.56
2022-10-31T14:39:34.486Z,7.90
2022-10-31T14:42:50.397Z,10.40
2022-10-31T14:46:28.696Z,10.17
2022-10-31T14:48:05.246Z,12.13
2022-10-31T14:49:59.361Z,17.36
2022-10-31T14:51:27.598Z,10.96
2022-10-31T14:52:51.562Z,9.78
2022-10-31T14:54:15.790Z,9.81
2022-10-31T14:55:41.158Z,11.53
2022-10-31T14:57:08.658Z,12.01
2022-10-31T14:58:44.226Z,11.76
2022-10-31T15:00:08.003Z,10.67
2022-10-31T15:01:33.652Z,9.49
2022-10-31T15:03:18.627Z,13.02
2022-10-31T15:04:43.176Z,10.00
2022-10-31T15:06:27.461Z,9.79
2022-10-31T15:22:05.066Z,8.01
2022-10-31T15:23:29.228Z,8.93
2022-10-31T15:24:50.619Z,10.17
2022-10-31T15:26:20.014Z,10.17
2022-10-31T15:27:43.413Z,15.11
2022-10-31T15:29:06.046Z,12.04
2022-10-31T15:30:28.865Z,11.98
2022-10-31T15:32:02.771Z,11.82
2022-10-31T15:33:23.013Z,12.27
2022-10-31T15:34:45.854Z,14.48
2022-10-31T15:37:34.361Z,40.39
2022-10-31T15:40:17.527Z,17.78
2022-10-31T15:41:55.604Z,24.87
2022-10-31T15:43:19.197Z,19.24
2022-10-31T15:44:41.923Z,18.39
2022-10-31T15:46:04.116Z,18.08
2022-10-31T15:47:25.337Z,21.66
2022-10-31T15:48:49.454Z,21.05
2022-10-31T15:51:50.548Z,18.31
2022-10-31T15:53:20.619Z,19.08
2022-10-31T15:54:48.172Z,19.28
2022-10-31T15:56:13.084Z,22.30
2022-10-31T15:57:35.140Z,22.06
2022-10-31T15:58:58.715Z,21.23
2022-10-31T16:00:28.087Z,23.11
2022-10-31T16:02:06.098Z,23.25
2022-10-31T16:03:29.523Z,24.21
2022-10-31T16:06:20.899Z,25.27
2022-10-31T16:07:51.659Z,25.56
2022-10-31T16:09:21.742Z,25.98
2022-10-31T16:10:43.232Z,26.36
2022-10-31T16:12:04.802Z,24.46
2022-10-31T16:14:50.822Z,19.66
2022-10-31T16:17:41.334Z,18.91
2022-10-31T16:19:05.585Z,18.94
2022-10-31T16:20:28.986Z,16.61
2022-10-31T16:21:53.380Z,16.94
2022-10-31T16:23:17.623Z,14.36
2022-10-31T16:24:52.125Z,14.76
2022-10-31T16:26:17.233Z,14.65
2022-10-31T16:27:39.133Z,15.43
2022-10-31T16:29:05.657Z,15.61
2022-10-31T16:30:30.705Z,19.34
2022-10-31T16:31:55.129Z,20.53
2022-10-31T16:33:34.886Z,19.41
2022-10-31T16:35:11.281Z,18.43
2022-10-31T16:36:36.578Z,19.81
2022-10-31T16:37:58.716Z,19.88
2022-10-31T16:39:19.923Z,22.46
2022-10-31T16:40:47.241Z,18.72
2022-10-31T16:42:11.937Z,18.53
2022-10-31T16:43:33.831Z,18.61
2022-10-31T16:44:55.220Z,19.08
2022-10-31T16:47:40.640Z,18.98
2022-10-31T16:49:10.601Z,19.24
2022-10-31T16:50:32.300Z,18.17
2022-10-31T16:51:55.661Z,18.72
2022-10-31T16:53:17.438Z,18.16
2022-10-31T16:54:38.848Z,16.76
2022-10-31T16:56:01.962Z,16.79
2022-10-31T16:57:28.011Z,17.84
2022-10-31T16:58:52.654Z,16.82
2022-10-31T17:00:25.432Z,16.64
2022-10-31T17:01:48.761Z,15.78
2022-10-31T17:03:10.923Z,17.55
2022-10-31T17:05:57.603Z,15.11
2022-10-31T17:07:20.210Z,14.77
2022-10-31T17:08:43.368Z,17.03
2022-10-31T17:10:07.462Z,15.24
2022-10-31T17:11:33.509Z,14.16
2022-10-31T17:12:55.802Z,13.92
2022-10-31T17:14:20.193Z,13.89
2022-10-31T17:15:44.176Z,13.03
2022-10-31T17:17:07.636Z,12.35
2022-10-31T17:18:29.043Z,12.15
2022-10-31T17:19:51.386Z,12.33
2022-10-31T17:21:24.848Z,12.88
2022-10-31T17:24:13.846Z,14.71
2022-10-31T17:25:35.016Z,13.91
2022-10-31T17:26:56.504Z,13.97
2022-10-31T17:28:17.911Z,13.40
2022-10-31T17:29:39.363Z,13.43
2022-10-31T17:31:00.673Z,14.82
2022-10-31T17:32:21.680Z,13.71
2022-10-31T17:33:43.123Z,14.31
2022-10-31T17:35:05.348Z,14.11
2022-10-31T17:36:27.052Z,14.99
2022-10-31T17:37:48.094Z,14.90
2022-10-31T17:39:09.923Z,15.11
2022-10-31T17:40:33.922Z,11.33
2022-10-31T17:41:55.613Z,14.29
2022-10-31T17:43:16.942Z,13.97
2022-10-31T17:44:38.398Z,14.90
2022-10-31T17:45:59.916Z,14.49
2022-10-31T17:47:22.958Z,14.38
2022-10-31T17:48:45.846Z,13.12
2022-10-31T17:50:08.022Z,13.55
2022-10-31T17:51:29.486Z,14.73
2022-10-31T17:52:50.815Z,16.97
2022-10-31T17:54:18.308Z,17.69
2022-10-31T17:55:39.701Z,18.00
2022-10-31T17:57:03.032Z,16.49
2022-10-31T17:58:24.301Z,15.88
2022-10-31T17:59:46.034Z,16.62
2022-10-31T18:02:22.601Z,15.03
2022-10-31T18:03:44.599Z,16.36
2022-10-31T18:05:06.428Z,19.36
2022-10-31T18:06:28.287Z,20.54
2022-10-31T18:07:50.122Z,20.23
2022-10-31T18:09:11.397Z,15.74
2022-10-31T18:10:33.022Z,21.23
2022-10-31T18:11:54.495Z,21.19
2022-10-31T18:13:15.854Z,19.99
2022-10-31T18:14:43.448Z,19.89
2022-10-31T18:17:20.086Z,20.57
2022-10-31T18:18:43.025Z,19.53
2022-10-31T18:21:25.800Z,19.49
2022-10-31T18:22:47.194Z,15.82
2022-10-31T18:24:09.126Z,16.88
2022-10-31T18:25:30.765Z,18.44
2022-10-31T18:26:52.102Z,19.04
2022-10-31T18:28:13.461Z,19.68
2022-10-31T18:29:34.826Z,18.93
2022-10-31T18:30:58.965Z,19.01
2022-10-31T18:32:20.754Z,20.47
2022-10-31T18:33:42.025Z,20.49
2022-10-31T18:35:03.761Z,20.39
2022-10-31T18:36:25.825Z,21.84
2022-10-31T18:37:47.287Z,21.11
2022-10-31T18:39:08.815Z,21.62
2022-10-31T18:40:29.972Z,23.21
2022-10-31T18:41:51.411Z,24.51
2022-10-31T18:43:12.655Z,22.63
2022-10-31T18:44:33.750Z,24.92
2022-10-31T18:45:58.315Z,25.87
2022-10-31T18:47:20.910Z,25.91
2022-10-31T18:48:42.668Z,27.09
2022-10-31T18:50:04.768Z,26.32
2022-10-31T18:51:26.586Z,25.42
2022-10-31T18:52:48.596Z,25.47
2022-10-31T18:54:10.014Z,26.42
2022-10-31T18:55:31.790Z,21.36
2022-10-31T18:56:53.071Z,21.04
2022-10-31T18:58:14.489Z,21.95
2022-10-31T18:59:35.949Z,24.19
2022-10-31T19:00:57.282Z,24.93
2022-10-31T19:02:19.287Z,25.01
2022-10-31T19:03:40.664Z,23.41
2022-10-31T19:05:02.604Z,26.41
2022-10-31T19:18:29.512Z,22.75
2022-10-31T19:21:21.044Z,23.95
2022-10-31T19:22:43.009Z,24.21
2022-10-31T19:24:06.523Z,25.96
2022-10-31T19:25:27.854Z,25.51
2022-10-31T19:26:49.198Z,24.70
2022-10-31T19:28:10.547Z,24.51
2022-10-31T19:29:31.882Z,24.73
2022-10-31T19:32:12.855Z,23.30
2022-10-31T19:33:36.140Z,21.91
2022-10-31T19:34:57.721Z,22.04
2022-10-31T19:36:19.505Z,24.15
2022-10-31T19:37:40.911Z,24.41
2022-10-31T19:39:02.565Z,24.34
2022-10-31T19:40:24.058Z,24.34
2022-10-31T19:41:47.270Z,24.54
2022-10-31T19:43:09.523Z,24.70
2022-10-31T19:44:32.048Z,24.39
2022-10-31T19:46:00.398Z,23.82
2022-10-31T19:47:21.573Z,24.31
2022-10-31T19:48:43.444Z,23.29
2022-10-31T19:50:06.335Z,23.82
2022-10-31T19:51:28.110Z,27.15
2022-10-31T19:52:49.043Z,25.44
2022-10-31T19:54:11.413Z,25.93
2022-10-31T19:55:32.911Z,24.97
2022-10-31T19:56:54.342Z,25.07
2022-10-31T19:58:15.882Z,25.97
2022-10-31T19:59:39.569Z,26.01
2022-10-31T20:01:02.345Z,27.13
2022-10-31T20:02:24.079Z,27.42
2022-10-31T20:03:45.562Z,25.82
2022-10-31T20:05:07.777Z,25.86
2022-10-31T20:07:42.612Z,26.96
2022-10-31T20:09:07.466Z,21.14
2022-10-31T20:10:28.870Z,27.42
2022-10-31T20:11:50.196Z,27.92
2022-10-31T20:13:11.867Z,28.46
2022-10-31T20:14:33.364Z,27.83
2022-10-31T20:16:00.415Z,27.13
2022-10-31T20:17:21.706Z,26.56
2022-10-31T20:18:44.104Z,28.25
2022-10-31T20:20:06.337Z,26.94
2022-10-31T20:21:29.435Z,20.57
2022-10-31T20:22:50.423Z,26.58
2022-10-31T20:24:11.317Z,26.07
2022-10-31T20:25:32.766Z,24.49
2022-10-31T20:26:54.507Z,24.48
2022-10-31T20:28:16.168Z,23.66
2022-10-31T20:29:39.036Z,23.88
2022-10-31T20:32:21.226Z,19.86
2022-10-31T20:33:42.434Z,18.55
2022-10-31T20:35:04.204Z,18.67
2022-10-31T20:36:25.258Z,19.72
2022-10-31T20:39:10.861Z,16.17
2022-10-31T20:40:42.922Z,22.91
2022-10-31T20:42:09.518Z,21.47
2022-10-31T20:43:31.912Z,20.78
2022-10-31T20:44:53.843Z,16.48
2022-10-31T20:46:17.629Z,22.99
2022-10-31T20:47:40.559Z,21.62
2022-10-31T20:49:02.126Z,21.95
2022-10-31T20:50:25.908Z,20.64
2022-10-31T20:51:48.050Z,22.84
2022-10-31T20:53:10.439Z,22.87
2022-10-31T20:54:31.926Z,17.81
2022-10-31T20:56:05.889Z,23.77
2022-10-31T20:57:26.283Z,22.48
2022-10-31T20:58:49.533Z,23.08
2022-10-31T21:00:14.610Z,24.39
2022-10-31T21:01:38.708Z,23.01
2022-10-31T21:03:05.395Z,24.54
2022-10-31T21:04:27.296Z,24.72
2022-10-31T21:07:33.027Z,23.08
2022-10-31T21:08:55.077Z,22.57
2022-10-31T21:10:17.145Z,23.99
2022-10-31T21:11:39.005Z,23.57
2022-10-31T21:13:22.587Z,24.32
2022-10-31T21:14:46.094Z,23.71
2022-10-31T21:16:09.859Z,23.69
2022-10-31T21:17:32.256Z,23.23
2022-10-31T21:18:55.820Z,24.46
2022-10-31T21:20:19.114Z,23.61
2022-10-31T21:21:40.783Z,24.73
2022-10-31T21:23:02.475Z,24.57
2022-10-31T21:24:25.489Z,28.08
2022-10-31T21:25:51.033Z,25.81
2022-10-31T21:27:13.003Z,25.19
2022-10-31T21:28:34.836Z,24.68
2022-10-31T21:29:56.353Z,23.26
2022-10-31T21:31:17.835Z,23.43
2022-10-31T21:32:40.989Z,23.31
2022-10-31T21:35:23.370Z,22.38
2022-10-31T21:36:48.567Z,22.90
2022-10-31T21:38:10.219Z,22.49
2022-10-31T21:39:31.958Z,24.08
2022-10-31T21:41:05.216Z,22.20
2022-10-31T21:42:26.432Z,18.18
2022-10-31T21:43:48.694Z,23.79
2022-10-31T21:45:10.059Z,21.02
2022-10-31T21:46:32.829Z,21.93
2022-10-31T21:48:07.254Z,21.69
2022-10-31T21:49:29.270Z,21.12
2022-10-31T21:50:50.817Z,20.88
2022-10-31T21:52:13.882Z,19.83
2022-10-31T21:53:35.551Z,20.51
2022-10-31T21:54:56.980Z,20.16